Rehobeth, Alabama
Current Conditions -  °F | °C
As of 8:53 PM on Monday 22 Dec 2014 (Local Time) from KDHN Reporting Station
Haze Haze  
Wind Chill: 55°   Ceiling: 200
Heat Index: 55°   Visibility: 0.75mi
Dew Point: 55°   Wind: 7mph
Humidity: 100%   Direction: 90°E
Pressure: 29.9"   Gusts: NA
Location:  31.271°N, 85.3923°W
Report Text: KDHN 230253Z 09006KT 3/4SM BR VV002 13/13 A2990 RMK AO2 SLP122 T01280128 53005
Loading
Personal Weather Stations






























Interactive Weather Map New forecast layout! Learn more

10-Day Weather Forecast

Advertisements
Track Severe Weather on mobile